createdAt,value
2018-04-24T00:00:20.933Z,7.10
2018-04-24T00:02:54.435Z,5.77
2018-04-24T00:05:28.130Z,8.20
2018-04-24T00:08:01.876Z,5.50
2018-04-24T00:10:35.520Z,5.80
2018-04-24T00:13:09.042Z,7.73
2018-04-24T00:15:42.604Z,6.70
2018-04-24T00:18:16.151Z,8.63
2018-04-24T00:20:49.670Z,5.60
2018-04-24T00:23:23.389Z,8.97
2018-04-24T00:25:57.090Z,5.70
2018-04-24T00:28:30.851Z,5.67
2018-04-24T00:31:04.624Z,6.73
2018-04-24T00:33:38.576Z,10.20
2018-04-24T00:36:12.389Z,9.23
2018-04-24T00:38:46.187Z,8.67
2018-04-24T00:41:19.699Z,11.93
2018-04-24T00:43:53.271Z,7.33
2018-04-24T00:46:26.957Z,9.77
2018-04-24T00:49:00.611Z,6.87
2018-04-24T00:51:34.237Z,6.80
2018-04-24T00:54:07.874Z,6.37
2018-04-24T00:56:41.664Z,6.07
2018-04-24T00:59:16.017Z,8.87
2018-04-24T01:01:49.807Z,6.73
2018-04-24T01:04:23.524Z,3.20
2018-04-24T01:06:57.056Z,6.53
2018-04-24T01:09:30.950Z,4.70
2018-04-24T01:12:04.688Z,6.63
2018-04-24T01:14:38.292Z,7.13
2018-04-24T01:17:11.847Z,5.10
2018-04-24T01:19:45.360Z,7.50
2018-04-24T01:22:19.391Z,6.53
2018-04-24T01:24:52.943Z,5.40
2018-04-24T01:27:26.691Z,6.33
2018-04-24T01:30:00.225Z,8.60
2018-04-24T01:32:34.012Z,7.90
2018-04-24T01:35:07.614Z,3.80
2018-04-24T01:37:41.300Z,5.60
2018-04-24T01:40:14.937Z,5.17
2018-04-24T01:42:48.707Z,7.03
2018-04-24T01:45:22.218Z,4.10
2018-04-24T01:47:55.796Z,7.13
2018-04-24T01:50:29.344Z,4.80
2018-04-24T01:53:02.948Z,6.10
2018-04-24T01:55:36.727Z,6.60
2018-04-24T01:58:10.376Z,4.53
2018-04-24T02:00:44.040Z,5.90
2018-04-24T02:03:17.663Z,9.57
2018-04-24T02:05:51.244Z,6.47
2018-04-24T02:08:24.796Z,6.03
2018-04-24T02:10:58.304Z,3.17
2018-04-24T02:13:31.875Z,4.90
2018-04-24T02:16:05.535Z,6.10
2018-04-24T02:18:39.180Z,6.17
2018-04-24T02:21:12.947Z,8.37
2018-04-24T02:23:46.543Z,5.93
2018-04-24T02:26:20.072Z,5.87
2018-04-24T02:28:53.667Z,9.27
2018-04-24T02:31:27.336Z,7.37
2018-04-24T02:34:01.452Z,4.80
2018-04-24T02:36:35.096Z,9.20
2018-04-24T02:39:08.734Z,7.57
2018-04-24T02:41:42.244Z,6.77
2018-04-24T02:44:15.908Z,6.80
2018-04-24T02:46:49.555Z,7.83
2018-04-24T02:49:23.409Z,9.03
2018-04-24T02:51:56.997Z,6.30
2018-04-24T02:54:30.617Z,9.93
2018-04-24T02:57:04.277Z,9.57
2018-04-24T02:59:37.795Z,7.73
2018-04-24T03:02:11.431Z,8.33
2018-04-24T03:04:45.199Z,5.73
2018-04-24T03:07:18.986Z,10.63
2018-04-24T03:09:52.592Z,10.00
2018-04-24T03:12:26.219Z,6.67
2018-04-24T03:14:59.792Z,10.10
2018-04-24T03:17:33.443Z,6.97
2018-04-24T03:20:07.078Z,7.67
2018-04-24T03:22:40.638Z,6.43
2018-04-24T03:25:14.155Z,8.33
2018-04-24T03:27:47.692Z,9.27
2018-04-24T03:30:21.416Z,8.43
2018-04-24T03:32:54.944Z,15.37
2018-04-24T03:35:28.495Z,9.30
2018-04-24T03:38:02.111Z,10.83
2018-04-24T03:40:35.704Z,10.33
2018-04-24T03:43:09.296Z,9.10
2018-04-24T03:45:42.813Z,9.87
2018-04-24T03:48:16.439Z,8.83
2018-04-24T03:50:50.096Z,9.03
2018-04-24T03:53:23.764Z,11.83
2018-04-24T03:55:57.280Z,9.60
2018-04-24T03:58:30.979Z,12.13
2018-04-24T04:01:04.632Z,9.60
2018-04-24T04:03:38.265Z,9.63
2018-04-24T04:06:11.871Z,12.63
2018-04-24T04:08:45.470Z,10.27
2018-04-24T04:11:19.028Z,10.33
2018-04-24T04:13:52.656Z,12.00
2018-04-24T04:16:26.307Z,11.03
2018-04-24T04:19:11.784Z,12.13
2018-04-24T04:21:57.376Z,13.93
2018-04-24T04:27:25.720Z,11.70
2018-04-24T04:29:59.422Z,12.97
2018-04-24T04:32:33.084Z,10.93
2018-04-24T04:35:06.803Z,10.73
2018-04-24T04:37:40.429Z,9.97
2018-04-24T04:40:13.983Z,9.97
2018-04-24T04:42:47.732Z,12.30
2018-04-24T04:45:21.357Z,12.40
2018-04-24T04:47:55.040Z,9.80
2018-04-24T04:50:28.611Z,11.97
2018-04-24T04:53:02.656Z,11.43
2018-04-24T04:55:36.215Z,12.60
2018-04-24T04:58:09.823Z,9.57
2018-04-24T05:00:43.421Z,11.80
2018-04-24T05:03:17.033Z,8.43
2018-04-24T05:05:50.724Z,10.13
2018-04-24T05:08:24.455Z,8.73
2018-04-24T05:10:58.145Z,7.97
2018-04-24T05:13:31.788Z,9.90
2018-04-24T05:16:05.436Z,8.63
2018-04-24T05:18:38.941Z,6.47
2018-04-24T05:21:12.684Z,9.93
2018-04-24T05:23:46.245Z,7.80
2018-04-24T05:26:19.807Z,10.73
2018-04-24T05:28:53.416Z,8.43
2018-04-24T05:31:27.043Z,11.27
2018-04-24T05:34:00.624Z,6.57
2018-04-24T05:36:34.291Z,6.87
2018-04-24T05:39:07.990Z,9.20
2018-04-24T05:41:41.520Z,6.73
2018-04-24T05:44:15.151Z,8.50
2018-04-24T05:46:48.845Z,9.13
2018-04-24T05:49:22.431Z,7.93
2018-04-24T05:51:56.023Z,7.87
2018-04-24T05:54:29.588Z,10.73
2018-04-24T05:57:03.113Z,7.57
2018-04-24T05:59:36.915Z,7.67
2018-04-24T06:02:10.455Z,7.07
2018-04-24T06:04:44.240Z,7.13
2018-04-24T06:07:17.920Z,10.53
2018-04-24T06:09:51.519Z,6.70
2018-04-24T06:12:25.068Z,6.10
2018-04-24T06:14:58.755Z,10.03
2018-04-24T06:17:32.439Z,8.70
2018-04-24T06:20:06.152Z,6.67
2018-04-24T06:22:39.844Z,5.93
2018-04-24T06:25:13.476Z,6.23
2018-04-24T06:27:47.020Z,3.90
2018-04-24T06:30:20.605Z,5.53
2018-04-24T06:32:54.155Z,7.80
2018-04-24T06:35:27.968Z,5.80
2018-04-24T06:38:01.753Z,4.63
2018-04-24T06:40:35.387Z,6.60
2018-04-24T06:43:09.148Z,6.03
2018-04-24T06:45:42.712Z,6.97
2018-04-24T06:48:16.313Z,6.77
2018-04-24T06:50:49.936Z,7.63
2018-04-24T06:53:23.666Z,9.97
2018-04-24T06:55:57.428Z,5.53
2018-04-24T06:58:31.040Z,8.03
2018-04-24T07:01:04.795Z,7.33
2018-04-24T07:03:38.605Z,6.47
2018-04-24T07:06:12.128Z,5.53
2018-04-24T07:08:45.776Z,6.30
2018-04-24T07:11:19.614Z,7.63
2018-04-24T07:13:53.076Z,6.33
2018-04-24T07:16:26.687Z,8.70
2018-04-24T07:19:00.275Z,6.70
2018-04-24T07:21:33.811Z,6.20
2018-04-24T07:24:07.365Z,9.17
2018-04-24T07:26:41.107Z,8.90
2018-04-24T07:29:14.712Z,7.43
2018-04-24T07:31:48.568Z,8.33
2018-04-24T07:34:22.083Z,8.10
2018-04-24T07:36:55.776Z,8.13
2018-04-24T07:39:29.439Z,10.27
2018-04-24T07:42:03.048Z,8.17
2018-04-24T07:44:36.596Z,6.40
2018-04-24T07:47:10.333Z,11.37
2018-04-24T07:49:43.923Z,8.70
2018-04-24T07:52:17.983Z,5.77
2018-04-24T07:54:51.551Z,10.37
2018-04-24T07:57:25.262Z,8.53
2018-04-24T07:59:58.928Z,6.17
2018-04-24T08:02:32.640Z,7.47
2018-04-24T08:05:06.187Z,6.60
2018-04-24T08:07:39.896Z,7.60
2018-04-24T08:10:13.512Z,8.13
2018-04-24T08:12:47.244Z,5.97
2018-04-24T08:15:20.806Z,8.67
2018-04-24T08:17:54.457Z,6.27
2018-04-24T08:20:27.992Z,8.30
2018-04-24T08:23:01.828Z,5.93
2018-04-24T08:25:35.484Z,8.63
2018-04-24T08:28:09.289Z,9.20
2018-04-24T08:30:42.920Z,7.97
2018-04-24T08:33:16.484Z,8.90
2018-04-24T08:35:50.180Z,9.67
2018-04-24T08:38:23.965Z,9.07
2018-04-24T08:40:57.475Z,8.07
2018-04-24T08:43:31.088Z,8.13
2018-04-24T08:46:04.639Z,8.30
2018-04-24T08:48:38.244Z,8.40
2018-04-24T08:51:11.784Z,9.43
2018-04-24T08:53:45.527Z,12.67
2018-04-24T08:56:19.046Z,10.50
2018-04-24T08:58:52.609Z,8.80
2018-04-24T09:01:26.267Z,8.40
2018-04-24T09:03:59.804Z,11.40
2018-04-24T09:06:33.399Z,11.97
2018-04-24T09:09:07.177Z,11.93
2018-04-24T09:11:40.760Z,14.20
2018-04-24T09:14:14.288Z,13.80
2018-04-24T09:16:47.907Z,14.13
2018-04-24T09:19:21.566Z,14.40
2018-04-24T09:21:55.196Z,13.80
2018-04-24T09:24:28.856Z,16.90
2018-04-24T09:27:02.730Z,16.43
2018-04-24T09:29:36.308Z,13.17
2018-04-24T09:32:09.976Z,14.60
2018-04-24T09:34:43.640Z,14.43
2018-04-24T09:37:17.367Z,15.50
2018-04-24T09:39:51.044Z,18.50
2018-04-24T09:42:24.860Z,19.40
2018-04-24T09:44:58.384Z,16.83
2018-04-24T09:47:31.961Z,16.50
2018-04-24T09:50:05.523Z,15.63
2018-04-24T09:52:39.296Z,16.60
2018-04-24T09:55:12.783Z,15.10
2018-04-24T09:57:46.460Z,15.47
2018-04-24T10:00:25.524Z,13.73
2018-04-24T10:02:59.104Z,16.23
2018-04-24T10:05:32.708Z,17.57
2018-04-24T10:08:06.496Z,13.60
2018-04-24T10:10:40.015Z,13.13
2018-04-24T10:13:13.747Z,12.77
2018-04-24T10:15:47.436Z,9.93
2018-04-24T10:18:21.052Z,12.50
2018-04-24T10:20:54.729Z,16.67
2018-04-24T10:23:28.332Z,13.30
2018-04-24T10:26:01.972Z,13.50
2018-04-24T10:28:35.636Z,13.87
2018-04-24T10:31:09.201Z,15.80
2018-04-24T10:33:42.983Z,14.80
2018-04-24T10:36:16.553Z,15.10
2018-04-24T10:38:50.317Z,13.83
2018-04-24T10:41:23.953Z,13.27
2018-04-24T10:43:57.739Z,11.80
2018-04-24T10:46:31.465Z,11.73
2018-04-24T10:49:05.000Z,10.90
2018-04-24T10:51:38.654Z,13.30
2018-04-24T10:54:12.144Z,12.50
2018-04-24T10:56:45.667Z,14.47
2018-04-24T10:59:19.474Z,13.20
2018-04-24T11:01:53.100Z,11.80
2018-04-24T11:04:26.631Z,13.23
2018-04-24T11:07:00.224Z,14.70
2018-04-24T11:09:33.790Z,12.13
2018-04-24T11:12:07.303Z,14.07
2018-04-24T11:14:41.007Z,15.20
2018-04-24T11:17:14.586Z,16.60
2018-04-24T11:19:48.228Z,18.63
2018-04-24T11:22:22.139Z,19.60
2018-04-24T11:24:55.657Z,19.93
2018-04-24T11:27:29.188Z,20.57
2018-04-24T11:30:03.044Z,21.23
2018-04-24T11:32:36.834Z,18.50
2018-04-24T11:35:10.504Z,24.73
2018-04-24T11:37:44.081Z,23.03
2018-04-24T11:40:17.744Z,25.07
2018-04-24T11:42:51.530Z,17.30
2018-04-24T11:45:25.063Z,19.20
2018-04-24T11:47:58.636Z,19.53
2018-04-24T11:50:32.173Z,14.73
2018-04-24T11:53:05.955Z,15.17
2018-04-24T11:55:39.883Z,13.03
2018-04-24T11:58:13.412Z,16.33
2018-04-24T12:00:46.948Z,17.10
2018-04-24T12:03:20.496Z,17.33
2018-04-24T12:05:54.031Z,15.37
2018-04-24T12:08:27.599Z,17.27
2018-04-24T12:11:01.083Z,14.60
2018-04-24T12:13:34.756Z,20.83
2018-04-24T12:16:08.404Z,17.13
2018-04-24T12:18:41.928Z,16.90
2018-04-24T12:21:15.488Z,13.93
2018-04-24T12:23:49.156Z,15.03
2018-04-24T12:26:22.687Z,20.30
2018-04-24T12:28:56.331Z,30.80
2018-04-24T12:31:29.893Z,17.77
2018-04-24T12:34:03.592Z,17.63
2018-04-24T12:36:37.244Z,18.80
2018-04-24T12:39:10.876Z,17.67
2018-04-24T12:41:44.723Z,16.33
2018-04-24T12:44:18.220Z,15.37
2018-04-24T12:46:51.788Z,17.33
2018-04-24T12:49:25.323Z,13.87
2018-04-24T12:51:59.107Z,14.27
2018-04-24T12:54:32.755Z,14.50
2018-04-24T12:57:06.336Z,13.57
2018-04-24T12:59:39.939Z,14.00
2018-04-24T13:02:13.592Z,16.93
2018-04-24T13:04:47.325Z,13.83
2018-04-24T13:07:20.992Z,11.10
2018-04-24T13:09:54.635Z,14.00
2018-04-24T13:12:28.507Z,11.20
2018-04-24T13:15:02.090Z,11.97
2018-04-24T13:17:35.852Z,13.10
2018-04-24T13:20:09.441Z,13.07
2018-04-24T13:22:43.243Z,11.23
2018-04-24T13:25:17.008Z,12.50
2018-04-24T13:27:50.572Z,11.97
2018-04-24T13:30:24.188Z,14.27
2018-04-24T13:32:57.828Z,14.53
2018-04-24T13:35:31.406Z,12.40
2018-04-24T13:38:05.040Z,14.07
2018-04-24T13:40:38.620Z,15.83
2018-04-24T13:43:12.226Z,13.83
2018-04-24T13:45:45.723Z,15.80
2018-04-24T13:48:19.488Z,16.37
2018-04-24T13:50:53.072Z,10.40
2018-04-24T13:53:26.791Z,11.97
2018-04-24T13:56:00.518Z,10.97
2018-04-24T13:58:34.332Z,11.50
2018-04-24T14:01:07.856Z,13.60
2018-04-24T14:03:41.468Z,12.23
2018-04-24T14:06:15.064Z,12.07
2018-04-24T14:08:48.735Z,14.13
2018-04-24T14:11:22.386Z,12.07
2018-04-24T14:13:55.980Z,10.93
2018-04-24T14:16:29.716Z,13.83
2018-04-24T14:19:03.260Z,12.87
2018-04-24T14:21:36.964Z,11.03
2018-04-24T14:24:10.468Z,12.87
2018-04-24T14:26:44.128Z,12.00
2018-04-24T14:29:17.675Z,14.17
2018-04-24T14:31:51.164Z,14.03
2018-04-24T14:34:24.880Z,12.97
2018-04-24T14:36:58.543Z,12.40
2018-04-24T14:39:32.080Z,13.53
2018-04-24T14:42:05.559Z,10.43
2018-04-24T14:44:39.204Z,13.43
2018-04-24T14:47:12.949Z,12.13
2018-04-24T14:49:46.488Z,12.13
2018-04-24T14:52:20.148Z,12.07
2018-04-24T14:54:53.684Z,13.23
2018-04-24T14:57:27.332Z,14.80
2018-04-24T15:00:00.902Z,11.47
2018-04-24T15:02:34.433Z,12.00
2018-04-24T15:05:07.978Z,11.80
2018-04-24T15:07:41.540Z,10.63
2018-04-24T15:10:15.228Z,11.90
2018-04-24T15:12:48.984Z,9.53
2018-04-24T15:15:22.671Z,13.07
2018-04-24T15:17:56.444Z,11.13
2018-04-24T15:20:30.176Z,10.37
2018-04-24T15:23:03.784Z,10.97
2018-04-24T15:25:37.514Z,11.47
2018-04-24T15:28:11.289Z,11.40
2018-04-24T15:30:44.996Z,13.07
2018-04-24T15:33:18.575Z,8.53
2018-04-24T15:35:52.247Z,10.97
2018-04-24T15:38:25.884Z,14.17
2018-04-24T15:40:59.448Z,10.27
2018-04-24T15:43:33.008Z,11.00
2018-04-24T15:46:06.924Z,10.93
2018-04-24T15:48:40.943Z,8.93
2018-04-24T15:51:14.708Z,12.67
2018-04-24T15:53:48.475Z,11.20
2018-04-24T15:56:22.156Z,13.47
2018-04-24T15:58:55.924Z,12.50
2018-04-24T16:01:29.487Z,17.27
2018-04-24T16:04:03.100Z,12.70
2018-04-24T16:06:36.868Z,11.70
2018-04-24T16:09:10.400Z,17.17
2018-04-24T16:11:44.201Z,14.67
2018-04-24T16:14:17.807Z,11.63
2018-04-24T16:16:51.609Z,11.20
2018-04-24T16:19:25.182Z,14.53
2018-04-24T16:21:58.928Z,15.40
2018-04-24T16:24:32.664Z,12.23
2018-04-24T16:27:13.112Z,11.97
2018-04-24T16:29:46.791Z,11.80
2018-04-24T16:32:20.235Z,17.17
2018-04-24T16:34:53.973Z,11.93
2018-04-24T16:37:27.640Z,10.63
2018-04-24T16:40:01.496Z,11.90
2018-04-24T16:42:35.137Z,15.23
2018-04-24T16:45:08.829Z,12.27
2018-04-24T16:47:42.552Z,13.43
2018-04-24T16:50:16.095Z,12.57
2018-04-24T16:52:49.767Z,13.40
2018-04-24T16:55:23.438Z,14.97
2018-04-24T16:57:56.981Z,17.27
2018-04-24T17:00:30.677Z,14.30
2018-04-24T17:03:04.317Z,12.10
2018-04-24T17:05:37.876Z,14.07
2018-04-24T17:08:11.644Z,17.80
2018-04-24T17:10:45.176Z,17.10
2018-04-24T17:13:18.770Z,12.40
2018-04-24T17:15:52.331Z,15.37
2018-04-24T17:18:25.872Z,16.80
2018-04-24T17:20:59.481Z,12.60
2018-04-24T17:23:33.181Z,15.83
2018-04-24T17:26:06.936Z,14.33
2018-04-24T17:28:40.737Z,13.17
2018-04-24T17:31:14.517Z,16.97
2018-04-24T17:33:48.080Z,15.17
2018-04-24T17:36:21.916Z,16.40
2018-04-24T17:38:55.768Z,13.47
2018-04-24T17:41:29.312Z,14.70
2018-04-24T17:44:03.017Z,18.90
2018-04-24T17:46:36.868Z,16.57
2018-04-24T17:49:10.610Z,14.37
2018-04-24T17:51:44.163Z,14.67
2018-04-24T17:54:17.944Z,13.90
2018-04-24T17:56:51.703Z,14.23
2018-04-24T17:59:25.257Z,19.33
2018-04-24T18:01:58.871Z,15.20
2018-04-24T18:04:32.567Z,15.03
2018-04-24T18:07:06.175Z,15.77
2018-04-24T18:09:39.760Z,13.97
2018-04-24T18:12:13.373Z,16.07
2018-04-24T18:14:46.968Z,14.40
2018-04-24T18:17:20.573Z,15.83
2018-04-24T18:19:54.343Z,14.10
2018-04-24T18:22:28.090Z,14.70
2018-04-24T18:25:01.628Z,15.80
2018-04-24T18:27:35.184Z,15.37
2018-04-24T18:30:08.832Z,20.87
2018-04-24T18:32:42.493Z,16.47
2018-04-24T18:35:16.060Z,18.40
2018-04-24T18:37:49.735Z,17.77
2018-04-24T18:40:23.275Z,17.07
2018-04-24T18:42:56.839Z,16.00
2018-04-24T18:45:30.431Z,16.50
2018-04-24T18:48:04.184Z,17.23
2018-04-24T18:50:37.805Z,19.10
2018-04-24T18:53:11.612Z,17.77
2018-04-24T18:55:45.347Z,16.83
2018-04-24T18:58:18.907Z,16.03
2018-04-24T19:00:52.440Z,19.03
2018-04-24T19:03:26.106Z,18.73
2018-04-24T19:05:59.719Z,19.70
2018-04-24T19:08:33.355Z,18.53
2018-04-24T19:11:06.912Z,20.60
2018-04-24T19:13:40.624Z,17.47
2018-04-24T19:16:14.487Z,19.03
2018-04-24T19:21:50.139Z,23.17
2018-04-24T19:24:29.714Z,18.10
2018-04-24T19:27:03.400Z,19.20
2018-04-24T19:29:37.260Z,22.60
2018-04-24T19:32:16.643Z,22.33
2018-04-24T19:34:50.248Z,18.43
2018-04-24T19:37:24.077Z,21.20
2018-04-24T19:40:03.489Z,17.30
2018-04-24T19:42:37.267Z,19.20
2018-04-24T19:45:10.799Z,22.43
2018-04-24T19:47:44.391Z,17.87
2018-04-24T19:50:20.175Z,19.37
2018-04-24T19:52:54.056Z,22.07
2018-04-24T19:55:27.840Z,20.27
2018-04-24T19:58:01.409Z,21.20
2018-04-24T20:00:34.936Z,21.00
2018-04-24T20:03:08.480Z,23.07
2018-04-24T20:05:42.148Z,20.47
2018-04-24T20:08:15.857Z,19.03
2018-04-24T20:10:49.563Z,20.23
2018-04-24T20:13:23.208Z,20.77
2018-04-24T20:15:56.799Z,21.50
2018-04-24T20:18:30.492Z,19.43
2018-04-24T20:21:04.176Z,20.27
2018-04-24T20:23:37.748Z,21.67
2018-04-24T20:26:11.307Z,21.03
2018-04-24T20:28:44.895Z,20.73
2018-04-24T20:31:18.580Z,21.67
2018-04-24T20:33:52.100Z,24.50
2018-04-24T20:36:25.672Z,20.40
2018-04-24T20:38:59.360Z,16.73
2018-04-24T20:41:33.045Z,18.50
2018-04-24T20:44:06.639Z,18.73
2018-04-24T20:46:40.136Z,22.63
2018-04-24T20:49:13.631Z,18.13
2018-04-24T20:51:47.245Z,21.63
2018-04-24T20:54:20.790Z,20.37
2018-04-24T20:56:54.471Z,19.03
2018-04-24T20:59:28.071Z,19.70
2018-04-24T21:02:01.804Z,19.60
2018-04-24T21:04:35.343Z,19.50
2018-04-24T21:07:08.835Z,20.83
2018-04-24T21:09:42.373Z,23.80
2018-04-24T21:12:15.903Z,18.77
2018-04-24T21:14:49.548Z,21.33
2018-04-24T21:17:23.164Z,18.60
2018-04-24T21:19:56.751Z,19.57
2018-04-24T21:22:30.368Z,21.63
2018-04-24T21:25:04.108Z,21.37
2018-04-24T21:27:37.880Z,23.37
2018-04-24T21:30:11.647Z,24.13
2018-04-24T21:32:45.261Z,23.50
2018-04-24T21:35:19.062Z,21.23
2018-04-24T21:37:52.860Z,24.47
2018-04-24T21:40:26.520Z,20.83
2018-04-24T21:43:00.064Z,21.33
2018-04-24T21:45:33.904Z,22.70
2018-04-24T21:48:07.433Z,30.90
2018-04-24T21:50:40.984Z,20.30
2018-04-24T21:53:14.635Z,21.03
2018-04-24T21:55:48.183Z,22.40
2018-04-24T21:58:21.916Z,21.13
2018-04-24T22:00:55.511Z,21.73
2018-04-24T22:03:29.395Z,21.27
2018-04-24T22:06:03.168Z,19.63
2018-04-24T22:08:36.853Z,23.60
2018-04-24T22:11:10.539Z,19.73
2018-04-24T22:13:44.411Z,20.30
2018-04-24T22:16:18.007Z,21.77
2018-04-24T22:18:51.821Z,21.63
2018-04-24T22:21:25.331Z,21.00
2018-04-24T22:23:59.011Z,22.37
2018-04-24T22:26:32.756Z,18.97
2018-04-24T22:29:06.385Z,17.93
2018-04-24T22:31:39.989Z,18.07
2018-04-24T22:34:13.540Z,24.83
2018-04-24T22:36:47.292Z,22.37
2018-04-24T22:39:20.867Z,19.57
2018-04-24T22:41:54.473Z,17.03
2018-04-24T22:44:28.197Z,17.57
2018-04-24T22:47:01.820Z,21.90
2018-04-24T22:49:35.404Z,18.50
2018-04-24T22:52:09.264Z,21.30
2018-04-24T22:54:43.171Z,21.93
2018-04-24T22:57:16.683Z,19.47
2018-04-24T22:59:50.259Z,15.07
2018-04-24T23:02:23.833Z,18.73
2018-04-24T23:04:57.340Z,20.23
2018-04-24T23:07:31.160Z,17.73
2018-04-24T23:10:04.157Z,18.50
2018-04-24T23:12:49.652Z,16.40
2018-04-24T23:15:35.149Z,11.87
2018-04-24T23:18:20.808Z,15.07
2018-04-24T23:20:53.976Z,15.07
2018-04-24T23:23:27.572Z,12.77
2018-04-24T23:26:01.086Z,16.00
2018-04-24T23:28:34.775Z,15.00
2018-04-24T23:31:08.416Z,12.67
2018-04-24T23:33:42.234Z,10.37
2018-04-24T23:36:15.919Z,14.70
2018-04-24T23:38:49.756Z,12.60
2018-04-24T23:41:23.501Z,14.07
2018-04-24T23:43:57.268Z,14.63
2018-04-24T23:46:30.864Z,12.80
2018-04-24T23:49:04.671Z,15.00
2018-04-24T23:51:38.312Z,14.40
2018-04-24T23:54:11.867Z,10.87
2018-04-24T23:56:45.460Z,11.23
2018-04-24T23:59:19.220Z,15.53
